Flight Track Log - Related Links

Times and Time Zones

All times are in EDT time to prevent confusion due to time zone crossing. See the FLG4211 flight status page for this flight to view local times or setup timezone preferences in your user account.

Time Position Orientation Groundspeed Altitude Reporting Facility
EDT Latitude Longitude Course Direction KTS MPH feet Rate Location/Type
Tue 01:21:06 PM 42.1767 -85.4744 123° Southeast 201 231 3,600  Level Chicago Center
Tue 01:22:00 PM 42.1766 -85.3429 103° East  Level FlightAware Approximate
Tue 01:22:08 PM 42.1608 -85.3703 102° East 271 312 6,000  Level Chicago Center
Tue 01:22:45 PM 42.1525 -85.3061 100° East 276 318 7,600 2,536 Climbing Cleveland Center
Tue 01:23:00 PM 42.1667 -85.2702 90° East  Level FlightAware Approximate
Tue 01:23:45 PM 42.1344 -85.1897 102° East 298 343 10,100  Level Cleveland Center
Tue 01:24:00 PM 42.1556 -85.1982 106° East  Level FlightAware Approximate
Tue 01:24:45 PM 42.1122 -85.0622 103° East 320 368 10,900  Level Cleveland Center
Tue 01:25:00 PM 42.1463 -85.1545 106° East  Level FlightAware Approximate
Tue 01:25:45 PM 42.0903 -84.9292 102° East 348 400 11,000  Level Cleveland Center
Tue 01:26:45 PM 42.0664 -84.7875 103° East 367 422 11,000  Level Cleveland Center
Tue 01:27:45 PM 42.0122 -84.6667 121° Southeast 374 430 11,000  Level Cleveland Center
Tue 01:28:45 PM 41.9497 -84.5508 126° Southeast 379 436 11,000  Level Cleveland Center
Tue 01:29:45 PM 41.9058 -84.4308 116° Southeast 374 430 11,000  Level Cleveland Center
Tue 01:30:45 PM 41.8733 -84.2811 106° East 377 434 11,000  Level Cleveland Center
Tue 01:31:15 PM 41.8586 -84.2161 107° East 375 432 11,000 -100 Level Cleveland Center
Tue 01:31:45 PM 41.8442 -84.1456 105° East 368 423 10,900  Descending Cleveland Center
Tue 01:32:16 PM 41.8336 -84.0836 103° East 375 432 11,000 100 Climbing Cleveland Center
Tue 01:32:45 PM 41.8442 -84.0117 79° East 373 429 11,000  Level Cleveland Center
Tue 01:33:17 PM 41.8772 -83.9522 53° Northeast 375 432 11,000  Level Cleveland Center
Tue 01:34:18 PM 41.9489 -83.8525 46° Northeast 369 425 11,000  Level Cleveland Center
Tue 01:34:45 PM 41.9792 -83.8094 47° Northeast 344 396 11,000  Level Cleveland Center
Tue 01:35:19 PM 42.0244 -83.7558 41° Northeast 372 428 11,000 -100 Level Cleveland Center
Tue 01:35:45 PM 42.0547 -83.7125 47° Northeast 355 409 10,900  Descending Cleveland Center
Tue 01:36:20 PM 42.1000 -83.6589 41° Northeast 373 429 11,000  Climbing Cleveland Center
Tue 01:36:45 PM 42.1283 -83.6211 45° Northeast 360 414 10,900  Descending Cleveland Center
Tue 01:37:21 PM 42.1728 -83.5922 26° Northeast 268 308 11,000 100 Climbing Cleveland Center
Tue 01:37:45 PM 42.1964 -83.5653 40° Northeast 322 371 11,000 -91 Level Cleveland Center
Tue 01:38:27 PM 42.2408 -83.5422 21° North 238 274 10,900 -400 Descending Cleveland Center
Tue 01:38:45 PM 42.2558 -83.5261 38° Northeast 261 300 10,600 -1,393 Descending Cleveland Center
Tue 01:39:23 PM 42.2939 -83.5025 25° Northeast 242 278 9,600 -1,400 Descending Cleveland Center
Tue 01:39:45 PM 42.3131 -83.4867 31° Northeast 237 273 9,200 -1,785 Descending Cleveland Center
Tue 01:41:24 PM 42.4106 -83.4236 26° Northeast 227 261 6,000 -1,800 Descending Cleveland Center
Tue 01:42:25 PM 42.4206 -83.3536 79° East 190 219 4,400 -1,082 Descending Cleveland Center
Tue 01:43:26 PM 42.3839 -83.3183 145° Southeast 172 198 3,800 -689 Descending Cleveland Center
Tue 01:44:27 PM 42.3361 -83.3164 178° South 159 183 3,000 -787 Descending Cleveland Center
Tue 01:45:28 PM 42.2942 -83.3172 181° South 153 176 2,200 -787 Descending Cleveland Center

Login

Don't have an account? Register now (free) for customized features, flight alerts, and more!